首页
METAR-TAF:

METAR-TAF

机场 :

Greer, 南卡罗来纳州, 美国

纬度: 34-53-02N, 经度: 082-13-15W, 海拔: 296米

当前天气观测

该预报发布于43分钟前的10:53 UTC
风速7节,风向
温度 12°C
湿度 100%
气压 1001 hPa
能見度: 16.1公里
少量云层高于700英尺
多云层高于9000英尺
阴天层高于11000英尺
小雨

METAR: KGSP 241053Z 17007KT 10SM -RA FEW007 BKN090 OVC110 12/12 A2957 RMK AO2 SLP012 P0007 T01220122

时间: 06:36 (11:36 UTC)

预报

该预报发布于2小时和18分钟前的09:18 UTC
预报有效从24日的 09点(UTC)到 25日的 06点(UTC)
风速10节,风向南转西南,有时为16节阵风
能見度: 9.7公里
多云层高于600英尺
多云层高于1400英尺
小阵雨, 轻雾
短暂存在
从 24日的 09点(UTC)到 24日的 11点(UTC)
能見度: 4.8公里
散云层高于600英尺
阴天层高于2700英尺
雨, 轻雾
从 24日的 1100点(UTC)
风速9节,风向西转西南
能見度: 10公里
散云层高于600英尺
阴天层高于2700英尺
小阵雨
从 24日的 1400点(UTC)
风速10节,风向西转西南,有时为20节阵风
能見度: 10公里
散云层高于4500英尺
从 24日的 2100点(UTC)
风速6节,风向西北
能見度: 10公里
散云层高于10000英尺

TAF: KGSP 240918Z 2409/2506 20010G16KT 6SM -SHRA BR BKN006 BKN014 TEMPO 2409/2411 3SM RA BR SCT006 OVC027 FM241100 24009KT P6SM -SHRA SCT006 OVC027 FM241400 24010G20KT P6SM SCT045 FM242100 31006KT P6SM SCT100

超过4000个机场的气象观测和天气预报(METAR&TAF报告)。

可查询的气象台以黄色和红色小点在地图上表示。

将鼠标移到小点上方,可查看气象台名称。

然后点击查看天气观测和预报。

如需切换地图:点击带黑十字的绿色按钮放大地图;点击带横线的绿色按钮缩小地图;或者点击绿色箭头查看邻近地区的地图。


METAR-TAF: